createdAt,value
2019-04-25T00:00:19.751Z,99.99
2019-04-25T00:01:21.576Z,99.99
2019-04-25T00:02:21.252Z,99.99
2019-04-25T00:03:19.641Z,99.99
2019-04-25T00:04:19.620Z,99.99
2019-04-25T00:05:21.124Z,99.99
2019-04-25T00:06:19.547Z,99.99
2019-04-25T00:07:19.516Z,99.99
2019-04-25T00:08:19.464Z,99.99
2019-04-25T00:09:19.431Z,99.99
2019-04-25T00:10:19.394Z,99.99
2019-04-25T00:11:19.359Z,99.99
2019-04-25T00:12:19.321Z,99.99
2019-04-25T00:13:19.285Z,99.99
2019-04-25T00:14:19.283Z,99.99
2019-04-25T00:15:19.246Z,99.99
2019-04-25T00:16:19.179Z,99.99
2019-04-25T00:17:19.141Z,99.99
2019-04-25T00:18:19.107Z,99.99
2019-04-25T00:19:19.067Z,99.99
2019-04-25T00:20:19.031Z,99.99
2019-04-25T00:21:19.042Z,99.99
2019-04-25T00:22:18.963Z,99.99
2019-04-25T00:23:18.942Z,99.99
2019-04-25T00:24:18.899Z,99.99
2019-04-25T00:25:18.858Z,99.99
2019-04-25T00:26:18.822Z,99.99
2019-04-25T00:27:18.810Z,99.99
2019-04-25T00:28:18.749Z,99.99
2019-04-25T00:29:18.721Z,99.99
2019-04-25T00:30:18.670Z,99.99
2019-04-25T00:31:18.635Z,99.99
2019-04-25T00:32:18.602Z,99.99
2019-04-25T00:33:18.567Z,99.99
2019-04-25T00:34:18.526Z,99.99
2019-04-25T00:35:18.493Z,99.99
2019-04-25T00:36:18.465Z,99.99
2019-04-25T00:37:18.422Z,99.99
2019-04-25T00:38:18.384Z,99.99
2019-04-25T00:39:18.365Z,99.99
2019-04-25T00:40:18.315Z,99.99
2019-04-25T00:41:18.279Z,99.99
2019-04-25T00:42:18.239Z,99.99
2019-04-25T00:43:18.206Z,99.99
2019-04-25T00:44:18.172Z,99.99
2019-04-25T00:45:18.141Z,99.99
2019-04-25T00:46:18.131Z,99.99
2019-04-25T00:47:18.063Z,99.99
2019-04-25T00:48:18.025Z,99.99
2019-04-25T00:49:17.992Z,99.99
2019-04-25T00:50:17.953Z,99.99
2019-04-25T00:51:17.917Z,99.99
2019-04-25T00:52:17.889Z,99.99
2019-04-25T00:53:17.851Z,99.99
2019-04-25T00:54:17.808Z,99.99
2019-04-25T00:55:26.938Z,99.99
2019-04-25T00:56:17.738Z,99.99
2019-04-25T00:57:17.700Z,99.99
2019-04-25T00:58:17.670Z,99.99
2019-04-25T00:59:17.637Z,99.99
2019-04-25T01:00:17.595Z,99.99
2019-04-25T01:01:17.569Z,99.99
2019-04-25T01:02:17.519Z,99.99
2019-04-25T01:03:17.485Z,99.99
2019-04-25T01:04:17.455Z,99.99
2019-04-25T01:05:17.415Z,99.99
2019-04-25T01:06:17.377Z,99.99
2019-04-25T01:07:17.339Z,99.99
2019-04-25T01:08:17.312Z,99.99
2019-04-25T01:09:17.269Z,99.99
2019-04-25T01:10:17.231Z,99.99
2019-04-25T01:11:17.196Z,99.99
2019-04-25T01:12:17.159Z,99.99
2019-04-25T01:13:17.122Z,99.99
2019-04-25T01:14:17.094Z,99.99
2019-04-25T01:15:17.052Z,99.99
2019-04-25T01:16:17.017Z,99.99
2019-04-25T01:17:16.980Z,99.99
2019-04-25T01:18:16.942Z,99.99
2019-04-25T01:19:16.903Z,99.99
2019-04-25T01:20:16.870Z,99.99
2019-04-25T01:21:16.835Z,99.99
2019-04-25T01:22:16.799Z,99.99
2019-04-25T01:23:16.757Z,99.99
2019-04-25T01:24:16.746Z,99.99
2019-04-25T01:25:16.688Z,99.99
2019-04-25T01:26:16.656Z,99.99
2019-04-25T01:27:16.616Z,99.99
2019-04-25T01:28:16.577Z,99.99
2019-04-25T01:29:16.546Z,99.99
2019-04-25T01:30:16.506Z,99.99
2019-04-25T01:31:16.474Z,99.99
2019-04-25T01:32:16.459Z,99.99
2019-04-25T01:33:16.397Z,99.99
2019-04-25T01:34:16.360Z,99.99
2019-04-25T01:35:16.331Z,99.99
2019-04-25T01:36:16.290Z,99.99
2019-04-25T01:37:16.250Z,99.99
2019-04-25T01:38:16.215Z,99.99
2019-04-25T01:39:16.178Z,99.99
2019-04-25T01:40:16.154Z,99.99
2019-04-25T01:41:16.107Z,99.99
2019-04-25T01:42:16.069Z,99.99
2019-04-25T01:43:16.041Z,99.99
2019-04-25T01:44:16.006Z,99.99
2019-04-25T01:45:15.960Z,99.99
2019-04-25T01:46:15.927Z,99.99
2019-04-25T01:47:15.886Z,99.99
2019-04-25T01:48:15.858Z,99.99
2019-04-25T01:49:15.841Z,99.99
2019-04-25T01:50:15.784Z,99.99
2019-04-25T01:51:15.745Z,99.99
2019-04-25T01:52:15.714Z,99.99
2019-04-25T01:53:15.673Z,99.99
2019-04-25T01:54:15.638Z,99.99
2019-04-25T01:55:15.596Z,99.99
2019-04-25T01:56:15.569Z,99.99
2019-04-25T01:57:15.564Z,99.99
2019-04-25T01:58:15.488Z,99.99
2019-04-25T01:59:15.467Z,99.99
2019-04-25T02:00:15.418Z,99.99
2019-04-25T02:01:15.379Z,99.99
2019-04-25T02:02:15.366Z,99.99
2019-04-25T02:03:15.312Z,99.99
2019-04-25T02:04:15.273Z,99.99
2019-04-25T02:05:15.238Z,99.99
2019-04-25T02:06:15.205Z,99.99
2019-04-25T02:07:15.164Z,99.99
2019-04-25T02:08:15.131Z,99.99
2019-04-25T02:09:15.090Z,99.99
2019-04-25T02:10:15.066Z,99.99
2019-04-25T02:11:15.018Z,99.99
2019-04-25T02:12:15.555Z,99.99
2019-04-25T02:13:14.945Z,99.99
2019-04-25T02:14:14.904Z,99.99
2019-04-25T02:15:14.894Z,99.99
2019-04-25T02:16:14.858Z,99.99
2019-04-25T02:17:14.804Z,99.99
2019-04-25T02:18:14.762Z,99.99
2019-04-25T02:19:14.724Z,99.99
2019-04-25T02:20:14.696Z,99.99
2019-04-25T02:21:14.674Z,99.99
2019-04-25T02:22:14.667Z,99.99
2019-04-25T02:23:14.581Z,99.99
2019-04-25T02:24:14.545Z,99.99
2019-04-25T02:25:14.526Z,99.99
2019-04-25T02:26:16.780Z,99.99
2019-04-25T02:27:14.439Z,99.99
2019-04-25T02:28:15.875Z,99.99
2019-04-25T02:29:14.363Z,99.99
2019-04-25T02:30:15.433Z,99.99
2019-04-25T02:31:17.615Z,99.99
2019-04-25T02:32:14.724Z,99.99
2019-04-25T02:33:14.358Z,99.99
2019-04-25T02:34:17.577Z,99.99
2019-04-25T02:35:14.767Z,99.99
2019-04-25T02:36:15.066Z,99.99
2019-04-25T02:37:14.741Z,99.99
2019-04-25T02:38:14.639Z,99.99
2019-04-25T02:39:14.891Z,99.99
2019-04-25T02:40:14.253Z,99.99
2019-04-25T02:41:14.768Z,99.99
2019-04-25T02:42:16.533Z,99.99
2019-04-25T02:43:14.348Z,99.99
2019-04-25T02:44:14.576Z,99.99
2019-04-25T02:45:16.274Z,99.99
2019-04-25T02:46:15.157Z,99.99
2019-04-25T02:47:14.814Z,99.99
2019-04-25T02:48:14.193Z,99.99
2019-04-25T02:49:28.840Z,99.99
2019-04-25T02:50:15.105Z,99.99
2019-04-25T02:51:14.600Z,99.99
2019-04-25T02:52:17.807Z,99.99
2019-04-25T02:53:14.113Z,99.99
2019-04-25T02:54:14.048Z,99.99
2019-04-25T02:55:29.584Z,99.99
2019-04-25T02:56:30.327Z,99.99
2019-04-25T02:57:14.661Z,99.99
2019-04-25T02:58:14.086Z,99.99
2019-04-25T02:59:15.015Z,99.99
2019-04-25T03:00:14.971Z,99.99
2019-04-25T03:01:21.258Z,99.99
2019-04-25T03:02:15.262Z,99.99
2019-04-25T03:03:14.912Z,99.99
2019-04-25T03:04:14.407Z,99.99
2019-04-25T03:05:14.286Z,99.99
2019-04-25T03:06:15.017Z,99.99
2019-04-25T03:07:16.812Z,99.99
2019-04-25T03:08:14.269Z,99.99
2019-04-25T03:09:15.265Z,99.99
2019-04-25T03:10:14.867Z,99.99
2019-04-25T03:11:14.939Z,99.99
2019-04-25T03:12:26.806Z,99.99
2019-04-25T03:13:14.811Z,99.99
2019-04-25T03:14:14.582Z,99.99
2019-04-25T03:15:14.464Z,99.99
2019-04-25T03:16:13.998Z,99.99
2019-04-25T03:17:14.232Z,99.99
2019-04-25T03:18:15.207Z,99.99
2019-04-25T03:19:14.113Z,99.99
2019-04-25T03:20:14.613Z,99.99
2019-04-25T03:21:16.947Z,99.99
2019-04-25T03:22:14.954Z,99.99
2019-04-25T03:23:14.455Z,99.99
2019-04-25T03:24:13.989Z,99.99
2019-04-25T03:25:16.470Z,99.99
2019-04-25T03:26:13.520Z,99.99
2019-04-25T03:27:12.261Z,99.99
2019-04-25T03:28:13.786Z,99.99
2019-04-25T03:29:13.662Z,99.99
2019-04-25T03:30:14.849Z,99.99
2019-04-25T03:31:18.605Z,99.99
2019-04-25T03:32:14.467Z,99.99
2019-04-25T03:33:18.963Z,99.99
2019-04-25T03:34:16.024Z,99.99
2019-04-25T03:35:13.363Z,99.99
2019-04-25T03:36:11.932Z,99.99
2019-04-25T03:37:13.630Z,99.99
2019-04-25T03:38:12.596Z,99.99
2019-04-25T03:39:14.398Z,99.99
2019-04-25T03:40:13.502Z,99.99
2019-04-25T03:41:11.744Z,99.99
2019-04-25T03:42:12.041Z,99.99
2019-04-25T03:43:11.673Z,99.99
2019-04-25T03:44:12.519Z,99.99
2019-04-25T03:45:11.598Z,99.99
2019-04-25T03:46:12.743Z,99.99
2019-04-25T03:47:11.619Z,99.99
2019-04-25T03:48:11.716Z,99.99
2019-04-25T03:49:11.847Z,99.99
2019-04-25T03:50:12.309Z,99.99
2019-04-25T03:51:12.178Z,99.99
2019-04-25T03:52:12.234Z,99.99
2019-04-25T03:53:12.100Z,99.99
2019-04-25T03:54:12.206Z,99.99
2019-04-25T03:55:11.236Z,99.99
2019-04-25T03:56:11.205Z,99.99
2019-04-25T03:57:11.166Z,99.99
2019-04-25T03:58:11.736Z,99.99
2019-04-25T03:59:11.091Z,99.99
2019-04-25T04:00:11.055Z,99.99
2019-04-25T04:01:11.054Z,99.99
2019-04-25T04:02:11.029Z,99.99
2019-04-25T04:03:11.451Z,99.99
2019-04-25T04:04:11.149Z,99.99
2019-04-25T04:05:11.477Z,99.99
2019-04-25T04:06:11.614Z,99.99
2019-04-25T04:07:11.406Z,99.99
2019-04-25T04:08:10.765Z,99.99
2019-04-25T04:09:10.728Z,99.99
2019-04-25T04:10:10.697Z,99.99
2019-04-25T04:11:10.668Z,99.99
2019-04-25T04:12:10.621Z,99.99
2019-04-25T04:13:10.585Z,99.99
2019-04-25T04:14:10.543Z,99.99
2019-04-25T04:15:10.510Z,99.99
2019-04-25T04:16:10.559Z,99.99
2019-04-25T04:17:10.850Z,99.99
2019-04-25T04:18:10.706Z,99.99
2019-04-25T04:19:10.801Z,99.99
2019-04-25T04:20:10.948Z,99.99
2019-04-25T04:21:11.094Z,99.99
2019-04-25T04:22:11.165Z,99.99
2019-04-25T04:23:10.235Z,99.99
2019-04-25T04:24:10.184Z,99.99
2019-04-25T04:25:10.144Z,99.99
2019-04-25T04:26:10.105Z,99.99
2019-04-25T04:27:10.745Z,99.99
2019-04-25T04:28:10.079Z,99.99
2019-04-25T04:29:10.121Z,99.99
2019-04-25T04:30:10.085Z,99.99
2019-04-25T04:31:10.225Z,99.99
2019-04-25T04:32:10.589Z,99.99
2019-04-25T04:33:22.179Z,99.99
2019-04-25T04:34:10.569Z,99.99
2019-04-25T04:35:10.741Z,99.99
2019-04-25T04:36:09.745Z,99.99
2019-04-25T04:37:09.713Z,99.99
2019-04-25T04:38:09.689Z,99.99
2019-04-25T04:39:09.975Z,99.99
2019-04-25T04:40:09.654Z,99.99
2019-04-25T04:41:09.733Z,99.99
2019-04-25T04:42:09.663Z,99.99
2019-04-25T04:43:09.629Z,99.99
2019-04-25T04:44:10.003Z,99.99
2019-04-25T04:45:10.167Z,99.99
2019-04-25T04:46:10.189Z,99.99
2019-04-25T04:47:09.991Z,99.99
2019-04-25T04:48:10.213Z,99.99
2019-04-25T04:49:10.222Z,99.99
2019-04-25T04:50:09.243Z,99.99
2019-04-25T04:51:09.236Z,99.99
2019-04-25T04:52:09.336Z,99.99
2019-04-25T04:53:09.270Z,99.99
2019-04-25T04:54:09.500Z,99.99
2019-04-25T04:55:10.084Z,99.99
2019-04-25T04:56:09.675Z,99.99
2019-04-25T04:57:18.434Z,99.99
2019-04-25T04:58:08.958Z,99.99
2019-04-25T04:59:08.919Z,99.99
2019-04-25T05:00:08.892Z,99.99
2019-04-25T05:01:08.844Z,99.99
2019-04-25T05:02:08.810Z,99.99
2019-04-25T05:03:08.777Z,99.99
2019-04-25T05:04:08.741Z,99.99
2019-04-25T05:05:08.702Z,99.99
2019-04-25T05:06:08.667Z,99.99
2019-04-25T05:07:08.629Z,99.99
2019-04-25T05:08:08.769Z,99.99
2019-04-25T05:09:08.564Z,99.99
2019-04-25T05:10:08.526Z,99.99
2019-04-25T05:11:08.486Z,99.99
2019-04-25T05:12:08.469Z,99.99
2019-04-25T05:13:08.418Z,99.99
2019-04-25T05:14:08.384Z,99.99
2019-04-25T05:15:08.389Z,99.99
2019-04-25T05:16:08.314Z,99.99
2019-04-25T05:17:08.276Z,99.99
2019-04-25T05:18:08.250Z,99.99
2019-04-25T05:19:08.212Z,99.99
2019-04-25T05:20:08.204Z,99.99
2019-04-25T05:21:08.135Z,99.99
2019-04-25T05:22:08.103Z,99.99
2019-04-25T05:23:08.977Z,99.99
2019-04-25T05:24:07.980Z,99.99
2019-04-25T05:25:07.944Z,99.99
2019-04-25T05:26:07.964Z,99.99
2019-04-25T05:27:07.881Z,99.99
2019-04-25T05:28:07.842Z,99.99
2019-04-25T05:29:07.819Z,99.99
2019-04-25T05:30:07.770Z,99.99
2019-04-25T05:31:07.736Z,99.99
2019-04-25T05:32:07.700Z,99.99
2019-04-25T05:33:07.671Z,99.99
2019-04-25T05:34:07.633Z,99.99
2019-04-25T05:35:07.607Z,99.99
2019-04-25T05:36:07.574Z,99.99
2019-04-25T05:37:07.539Z,99.99
2019-04-25T05:38:07.494Z,99.99
2019-04-25T05:39:07.456Z,99.99
2019-04-25T05:40:07.428Z,99.99
2019-04-25T05:41:07.391Z,99.99
2019-04-25T05:42:07.732Z,99.99
2019-04-25T05:43:07.323Z,99.99
2019-04-25T05:44:07.287Z,99.99
2019-04-25T05:45:07.256Z,99.99
2019-04-25T05:46:07.228Z,99.99
2019-04-25T05:47:07.186Z,99.99
2019-04-25T05:48:07.150Z,99.99
2019-04-25T05:49:07.116Z,99.99
2019-04-25T05:50:07.082Z,99.99
2019-04-25T05:51:07.048Z,99.99
2019-04-25T05:52:07.029Z,99.99
2019-04-25T05:53:06.980Z,99.99
2019-04-25T05:54:06.947Z,99.99
2019-04-25T05:55:06.921Z,99.99
2019-04-25T05:56:06.879Z,99.99
2019-04-25T05:57:06.880Z,99.99
2019-04-25T05:58:06.810Z,99.99
2019-04-25T05:59:06.777Z,99.90
2019-04-25T06:00:06.749Z,97.99
2019-04-25T06:01:06.714Z,99.52
2019-04-25T06:02:06.679Z,98.47
2019-04-25T06:03:06.644Z,97.03
2019-04-25T06:04:06.611Z,96.94
2019-04-25T06:05:06.578Z,96.75
2019-04-25T06:06:06.560Z,96.75
2019-04-25T06:07:06.515Z,96.37
2019-04-25T06:08:06.478Z,96.84
2019-04-25T06:09:06.444Z,96.94
2019-04-25T06:10:06.411Z,95.98
2019-04-25T06:11:06.379Z,95.12
2019-04-25T06:12:06.360Z,95.89
2019-04-25T06:13:06.314Z,96.27
2019-04-25T06:14:06.280Z,96.75
2019-04-25T06:15:06.242Z,96.94
2019-04-25T06:16:06.212Z,95.70
2019-04-25T06:17:06.177Z,94.84
2019-04-25T06:18:06.148Z,95.89
2019-04-25T06:19:13.974Z,94.74
2019-04-25T06:20:06.325Z,94.93
2019-04-25T06:21:06.042Z,95.12
2019-04-25T06:22:06.009Z,96.56
2019-04-25T06:23:05.977Z,96.66
2019-04-25T06:24:05.975Z,96.66
2019-04-25T06:25:12.361Z,95.70
2019-04-25T06:26:19.219Z,95.46
2019-04-25T06:27:05.848Z,93.55
2019-04-25T06:28:05.812Z,93.93
2019-04-25T06:29:05.789Z,91.50
2019-04-25T06:30:05.743Z,93.07
2019-04-25T06:31:10.031Z,93.36
2019-04-25T06:32:08.522Z,92.21
2019-04-25T06:33:05.656Z,93.07
2019-04-25T06:34:05.618Z,92.79
2019-04-25T06:35:05.580Z,91.55
2019-04-25T06:36:05.550Z,92.21
2019-04-25T06:37:06.155Z,92.21
2019-04-25T06:38:05.487Z,91.55
2019-04-25T06:39:05.448Z,92.55
2019-04-25T06:40:05.419Z,91.30
2019-04-25T06:41:05.427Z,91.69
2019-04-25T06:42:06.117Z,90.35
2019-04-25T06:43:05.321Z,89.73
2019-04-25T06:44:05.288Z,90.49
2019-04-25T06:45:05.257Z,88.10
2019-04-25T06:46:05.223Z,88.10
2019-04-25T06:47:05.197Z,88.10
2019-04-25T06:48:05.169Z,85.90
2019-04-25T06:49:05.129Z,87.43
2019-04-25T06:50:05.093Z,87.34
2019-04-25T06:51:05.065Z,86.19
2019-04-25T06:52:05.034Z,86.67
2019-04-25T06:53:05.211Z,87.05
2019-04-25T06:54:04.976Z,88.20
2019-04-25T06:55:04.935Z,88.77
2019-04-25T06:56:04.904Z,86.67
2019-04-25T06:57:04.871Z,84.95
2019-04-25T06:58:11.946Z,86.19
2019-04-25T06:59:04.806Z,84.38
2019-04-25T07:00:04.777Z,84.76
2019-04-25T07:01:04.750Z,86.86
2019-04-25T07:02:04.712Z,86.76
2019-04-25T07:03:04.691Z,86.38
2019-04-25T07:04:04.657Z,86.34
2019-04-25T07:05:04.617Z,86.53
2019-04-25T07:06:04.583Z,88.34
2019-04-25T07:07:12.150Z,87.20
2019-04-25T07:08:04.517Z,87.87
2019-04-25T07:09:04.486Z,88.34
2019-04-25T07:10:04.465Z,89.78
2019-04-25T07:11:04.419Z,89.20
2019-04-25T07:12:04.395Z,87.91
2019-04-25T07:13:04.389Z,87.72
2019-04-25T07:14:04.335Z,89.25
2019-04-25T07:15:04.297Z,89.34
2019-04-25T07:16:04.739Z,89.82
2019-04-25T07:17:04.417Z,87.82
2019-04-25T07:18:04.199Z,88.29
2019-04-25T07:19:04.597Z,89.68
2019-04-25T07:20:04.131Z,86.86
2019-04-25T07:21:04.115Z,87.72
2019-04-25T07:22:04.067Z,87.24
2019-04-25T07:23:04.042Z,87.34
2019-04-25T07:24:04.208Z,85.90
2019-04-25T07:25:03.973Z,86.38
2019-04-25T07:26:03.937Z,87.24
2019-04-25T07:27:03.937Z,86.57
2019-04-25T07:28:03.879Z,86.67
2019-04-25T07:29:05.353Z,86.10
2019-04-25T07:30:04.115Z,85.14
2019-04-25T07:31:03.775Z,86.29
2019-04-25T07:32:03.925Z,85.90
2019-04-25T07:33:03.855Z,86.57
2019-04-25T07:34:03.680Z,87.05
2019-04-25T07:35:03.743Z,86.38
2019-04-25T07:36:04.281Z,86.86
2019-04-25T07:37:03.597Z,86.57
2019-04-25T07:38:03.994Z,86.96
2019-04-25T07:39:08.192Z,87.19
2019-04-25T07:40:04.140Z,88.24
2019-04-25T07:41:03.728Z,87.66
2019-04-25T07:42:04.145Z,85.61
2019-04-25T07:43:04.815Z,84.55
2019-04-25T07:44:04.257Z,85.22
2019-04-25T07:45:04.219Z,84.46
2019-04-25T07:46:03.513Z,82.64
2019-04-25T07:47:04.026Z,81.97
2019-04-25T07:48:04.106Z,81.73
2019-04-25T07:49:03.512Z,82.40
2019-04-25T07:50:04.013Z,81.25
2019-04-25T07:51:03.715Z,80.67
2019-04-25T07:52:03.595Z,81.25
2019-04-25T07:53:03.625Z,82.11
2019-04-25T07:54:04.499Z,80.87
2019-04-25T07:55:03.773Z,79.77
2019-04-25T07:56:04.242Z,81.30
2019-04-25T07:57:03.649Z,82.83
2019-04-25T07:58:03.186Z,83.79
2019-04-25T07:59:03.828Z,82.54
2019-04-25T08:00:03.234Z,83.69
2019-04-25T08:01:03.774Z,83.40
2019-04-25T08:02:03.377Z,83.03
2019-04-25T08:03:04.083Z,83.89
2019-04-25T08:04:03.567Z,84.17
2019-04-25T08:05:04.179Z,85.22
2019-04-25T08:06:03.069Z,83.12
2019-04-25T08:07:04.112Z,82.83
2019-04-25T08:08:03.498Z,81.97
2019-04-25T08:09:04.076Z,83.40
2019-04-25T08:10:04.013Z,83.60
2019-04-25T08:11:04.053Z,83.79
2019-04-25T08:12:03.348Z,84.27
2019-04-25T08:13:03.285Z,83.79
2019-04-25T08:14:03.426Z,84.17
2019-04-25T08:15:04.061Z,84.70
2019-04-25T08:16:03.409Z,84.80
2019-04-25T08:17:03.693Z,84.99
2019-04-25T08:18:04.000Z,84.80
2019-04-25T08:19:03.904Z,86.33
2019-04-25T08:20:03.901Z,86.52
2019-04-25T08:21:03.321Z,85.85
2019-04-25T08:22:03.639Z,85.89
2019-04-25T08:23:04.116Z,85.61
2019-04-25T08:24:03.053Z,86.76
2019-04-25T08:25:03.638Z,85.22
2019-04-25T08:26:02.044Z,85.22
2019-04-25T08:27:03.306Z,84.27
2019-04-25T08:28:03.715Z,83.31
2019-04-25T08:29:03.595Z,84.36
2019-04-25T08:30:01.957Z,83.50
2019-04-25T08:31:03.506Z,84.65
2019-04-25T08:32:01.843Z,84.84
2019-04-25T08:33:01.841Z,83.89
2019-04-25T08:34:03.452Z,84.08
2019-04-25T08:35:01.753Z,85.03
2019-04-25T08:36:06.505Z,84.27
2019-04-25T08:37:01.695Z,84.46
2019-04-25T08:38:03.380Z,84.12
2019-04-25T08:39:03.256Z,82.97
2019-04-25T08:40:01.593Z,82.49
2019-04-25T08:41:01.564Z,82.01
2019-04-25T08:42:03.335Z,82.40
2019-04-25T08:43:01.502Z,82.40
2019-04-25T08:44:01.490Z,82.87
2019-04-25T08:45:03.581Z,82.20
2019-04-25T08:46:01.416Z,81.34
2019-04-25T08:47:01.369Z,82.24
2019-04-25T08:48:01.338Z,81.96
2019-04-25T08:49:02.354Z,82.06
2019-04-25T08:50:01.282Z,82.06
2019-04-25T08:51:01.245Z,83.20
2019-04-25T08:52:01.211Z,82.92
2019-04-25T08:53:01.188Z,83.20
2019-04-25T08:54:01.157Z,82.63
2019-04-25T08:55:01.124Z,82.82
2019-04-25T08:56:01.087Z,83.30
2019-04-25T08:57:01.054Z,83.44
2019-04-25T08:58:01.082Z,82.67
2019-04-25T08:59:05.379Z,83.05
2019-04-25T09:00:01.000Z,81.62
2019-04-25T09:01:01.522Z,82.52
2019-04-25T09:02:00.899Z,82.71
2019-04-25T09:03:00.930Z,83.67
2019-04-25T09:04:03.162Z,82.57
2019-04-25T09:05:00.812Z,81.90
2019-04-25T09:06:01.058Z,80.18
2019-04-25T09:07:00.801Z,81.23
2019-04-25T09:08:00.766Z,79.80
2019-04-25T09:09:00.692Z,79.70
2019-04-25T09:10:00.711Z,80.85
2019-04-25T09:11:00.673Z,81.13
2019-04-25T09:12:00.609Z,82.19
2019-04-25T09:13:00.618Z,82.43
2019-04-25T09:14:00.530Z,83.20
2019-04-25T09:15:00.499Z,82.43
2019-04-25T09:16:00.480Z,82.67
2019-04-25T09:17:00.436Z,83.34
2019-04-25T09:18:00.470Z,82.48
2019-04-25T09:19:00.380Z,83.15
2019-04-25T09:20:00.397Z,81.71
2019-04-25T09:21:00.315Z,81.37
2019-04-25T09:22:00.335Z,81.46
2019-04-25T09:23:00.311Z,82.62
2019-04-25T09:24:00.224Z,81.18
2019-04-25T09:25:00.236Z,80.22
2019-04-25T09:26:00.217Z,79.32
2019-04-25T09:27:00.131Z,79.70
2019-04-25T09:28:00.158Z,80.85
2019-04-25T09:29:00.074Z,79.80
2019-04-25T09:30:00.040Z,81.33
2019-04-25T09:31:00.072Z,79.41
2019-04-25T09:31:59.986Z,78.74
2019-04-25T09:33:00.015Z,79.36
2019-04-25T09:33:59.973Z,79.32
2019-04-25T09:34:59.888Z,80.89
2019-04-25T09:35:59.913Z,79.83
2019-04-25T09:36:59.898Z,82.14
2019-04-25T09:37:59.795Z,81.95
2019-04-25T09:38:59.767Z,80.03
2019-04-25T09:39:59.854Z,78.59
2019-04-25T09:40:59.757Z,78.59
2019-04-25T09:41:59.733Z,78.49
2019-04-25T09:42:59.699Z,78.59
2019-04-25T09:43:59.623Z,78.02
2019-04-25T09:44:59.585Z,78.69
2019-04-25T09:45:59.554Z,78.11
2019-04-25T09:46:59.575Z,79.36
2019-04-25T09:47:59.552Z,79.74
2019-04-25T09:48:59.517Z,80.51
2019-04-25T09:49:59.482Z,80.60
2019-04-25T09:50:59.472Z,81.46
2019-04-25T09:51:59.371Z,80.22
2019-04-25T09:52:59.392Z,79.55
2019-04-25T09:53:59.402Z,79.45
2019-04-25T09:54:59.330Z,79.74
2019-04-25T09:55:59.252Z,79.74
2019-04-25T09:56:59.219Z,79.74
2019-04-25T09:57:59.238Z,79.07
2019-04-25T09:58:59.240Z,79.26
2019-04-25T09:59:59.181Z,78.02
2019-04-25T10:00:59.148Z,78.30
2019-04-25T10:01:59.078Z,77.82
2019-04-25T10:02:59.039Z,78.82
2019-04-25T10:03:59.059Z,77.19
2019-04-25T10:04:59.011Z,77.29
2019-04-25T10:05:58.940Z,77.38
2019-04-25T10:06:58.911Z,78.44
2019-04-25T10:07:58.941Z,78.67
2019-04-25T10:08:58.944Z,79.82
2019-04-25T10:09:58.884Z,78.67
2019-04-25T10:10:58.844Z,75.89
2019-04-25T10:11:58.818Z,77.51
2019-04-25T10:12:58.732Z,77.17
2019-04-25T10:13:58.704Z,78.32
2019-04-25T10:14:58.675Z,77.71
2019-04-25T10:15:58.712Z,75.79
2019-04-25T10:16:58.673Z,74.93
2019-04-25T10:17:58.645Z,74.83
2019-04-25T10:18:58.612Z,76.37
2019-04-25T10:19:58.581Z,74.83
2019-04-25T10:20:58.540Z,75.79
2019-04-25T10:21:58.515Z,75.70
2019-04-25T10:22:58.482Z,75.12
2019-04-25T10:23:58.465Z,72.33
2019-04-25T10:25:00.684Z,73.10
2019-04-25T10:25:58.391Z,74.16
2019-04-25T10:26:58.371Z,73.30
2019-04-25T10:27:58.348Z,74.26
2019-04-25T10:28:58.307Z,73.20
2019-04-25T10:29:58.274Z,73.10
2019-04-25T10:30:58.268Z,73.30
2019-04-25T10:31:58.210Z,74.39
2019-04-25T10:32:58.179Z,73.24
2019-04-25T10:33:58.152Z,71.95
2019-04-25T10:34:58.116Z,71.47
2019-04-25T10:35:59.519Z,72.18
2019-04-25T10:36:58.055Z,74.35
2019-04-25T10:37:58.028Z,74.35
2019-04-25T10:39:07.495Z,73.24
2019-04-25T10:39:57.988Z,72.56
2019-04-25T10:40:57.947Z,73.04
2019-04-25T10:41:57.906Z,70.74
2019-04-25T10:42:57.886Z,73.33
2019-04-25T10:43:57.845Z,74.01
2019-04-25T10:44:57.826Z,73.04
2019-04-25T10:45:57.818Z,72.75
2019-04-25T10:46:57.760Z,72.95
2019-04-25T10:47:57.727Z,73.14
2019-04-25T10:48:57.692Z,74.23
2019-04-25T10:49:59.119Z,70.87
2019-04-25T10:50:57.635Z,69.46
2019-04-25T10:51:57.603Z,70.14
2019-04-25T10:52:57.583Z,69.46
2019-04-25T10:53:57.543Z,69.75
2019-04-25T10:54:57.537Z,69.18
2019-04-25T10:55:57.503Z,67.74
2019-04-25T10:56:57.457Z,67.77
2019-04-25T10:57:57.424Z,68.54
2019-04-25T10:58:57.405Z,67.19
2019-04-25T11:00:06.324Z,66.61
2019-04-25T11:00:57.339Z,67.00
2019-04-25T11:01:57.339Z,65.94
2019-04-25T11:02:57.299Z,64.98
2019-04-25T11:03:57.280Z,65.66
2019-04-25T11:04:57.241Z,64.79
2019-04-25T11:05:57.190Z,65.17
2019-04-25T11:06:57.165Z,65.50
2019-04-25T11:07:57.135Z,64.15
2019-04-25T11:08:57.119Z,62.54
2019-04-25T11:09:57.078Z,61.61
2019-04-25T11:10:57.065Z,60.13
2019-04-25T11:11:56.994Z,58.07
2019-04-25T11:12:56.966Z,56.10
2019-04-25T11:13:56.910Z,55.16
2019-04-25T11:14:56.884Z,52.92
2019-04-25T11:15:57.115Z,50.16
2019-04-25T11:16:56.834Z,49.44
2019-04-25T11:17:56.806Z,47.25
2019-04-25T11:18:56.812Z,44.75
2019-04-25T11:19:56.793Z,44.41
2019-04-25T11:20:56.739Z,45.67
2019-04-25T11:21:56.719Z,44.35
2019-04-25T11:22:56.690Z,41.34
2019-04-25T11:23:56.668Z,40.33
2019-04-25T11:24:56.652Z,42.29
2019-04-25T11:25:56.627Z,42.50
2019-04-25T11:26:56.598Z,42.02
2019-04-25T11:27:56.620Z,43.75
2019-04-25T11:28:56.556Z,45.62
2019-04-25T11:30:08.589Z,46.69
2019-04-25T11:30:56.993Z,46.58
2019-04-25T11:31:56.486Z,45.17
2019-04-25T11:32:56.497Z,44.65
2019-04-25T11:33:56.442Z,45.72
2019-04-25T11:34:57.279Z,42.00
2019-04-25T11:35:56.577Z,43.38
2019-04-25T11:36:56.373Z,43.23
2019-04-25T11:37:56.929Z,40.45
2019-04-25T11:38:56.367Z,40.78
2019-04-25T11:39:56.311Z,41.26
2019-04-25T11:40:56.295Z,43.64
2019-04-25T11:41:56.286Z,39.57
2019-04-25T11:42:56.295Z,40.47
2019-04-25T11:43:56.815Z,37.46
2019-04-25T11:44:56.265Z,39.28
2019-04-25T11:45:57.113Z,39.04
2019-04-25T11:46:56.231Z,38.83
2019-04-25T11:47:56.223Z,40.27
2019-04-25T11:48:56.159Z,39.14
2019-04-25T11:49:56.155Z,37.97
2019-04-25T11:50:56.124Z,37.41
2019-04-25T11:51:56.093Z,36.92
2019-04-25T11:52:56.358Z,36.51
2019-04-25T11:53:56.056Z,38.09
2019-04-25T11:54:56.081Z,37.10
2019-04-25T11:55:56.015Z,36.88
2019-04-25T11:56:56.484Z,35.23
2019-04-25T11:57:55.969Z,36.61
2019-04-25T11:58:55.945Z,37.19
2019-04-25T11:59:55.936Z,35.23
2019-04-25T12:00:57.950Z,37.99
2019-04-25T12:01:57.293Z,35.55
2019-04-25T12:02:56.120Z,36.92
2019-04-25T12:03:56.146Z,38.59
2019-04-25T12:04:55.817Z,37.27
2019-04-25T12:05:55.798Z,35.17
2019-04-25T12:06:55.767Z,37.96
2019-04-25T12:07:55.750Z,37.35
2019-04-25T12:08:56.438Z,38.00
2019-04-25T12:09:55.710Z,40.01
2019-04-25T12:10:55.705Z,41.56
2019-04-25T12:11:55.978Z,40.46
2019-04-25T12:12:55.720Z,41.22
2019-04-25T12:13:55.603Z,36.75
2019-04-25T12:14:55.606Z,38.96
2019-04-25T12:15:55.743Z,38.25
2019-04-25T12:16:56.262Z,37.86
2019-04-25T12:17:55.913Z,37.51
2019-04-25T12:18:56.462Z,38.11
2019-04-25T12:19:56.233Z,34.53
2019-04-25T12:20:57.908Z,35.49
2019-04-25T12:21:56.730Z,37.39
2019-04-25T12:23:05.943Z,35.76
2019-04-25T12:23:55.376Z,38.32
2019-04-25T12:24:55.757Z,36.40
2019-04-25T12:25:55.356Z,34.40
2019-04-25T12:26:56.018Z,36.13
2019-04-25T12:27:55.287Z,36.15
2019-04-25T12:28:56.610Z,36.26
2019-04-25T12:29:55.246Z,34.90
2019-04-25T12:30:56.413Z,35.41
2019-04-25T12:31:56.234Z,33.73
2019-04-25T12:32:55.252Z,34.70
2019-04-25T12:33:56.369Z,33.86
2019-04-25T12:34:56.031Z,34.84
2019-04-25T12:35:55.325Z,35.91
2019-04-25T12:36:55.078Z,35.29
2019-04-25T12:37:55.503Z,35.19
2019-04-25T12:38:55.571Z,34.94
2019-04-25T12:39:55.906Z,33.07
2019-04-25T12:40:55.347Z,34.11
2019-04-25T12:41:56.039Z,34.50
2019-04-25T12:42:54.947Z,33.93
2019-04-25T12:43:55.455Z,34.09
2019-04-25T12:44:54.961Z,33.99
2019-04-25T12:45:54.872Z,35.37
2019-04-25T12:46:55.661Z,35.08
2019-04-25T12:47:57.978Z,35.16
2019-04-25T12:48:54.805Z,35.24
2019-04-25T12:49:55.145Z,35.96
2019-04-25T12:50:55.454Z,37.87
2019-04-25T12:51:54.742Z,39.69